sensor_id;sensor_type;location;lat;lon;timestamp;pressure;altitude;pressure_sealevel;temperature;humidity
5905;BME280;2978;42.012;24.880;2023-02-21T00:01:24;99017.59;;;11.19;40.41
5905;BME280;2978;42.012;24.880;2023-02-21T00:04:08;99020.88;;;11.11;40.42
5905;BME280;2978;42.012;24.880;2023-02-21T00:06:53;99016.78;;;11.14;39.83
5905;BME280;2978;42.012;24.880;2023-02-21T00:09:38;99025.88;;;11.29;39.47
5905;BME280;2978;42.012;24.880;2023-02-21T00:12:22;99023.66;;;11.31;39.29
5905;BME280;2978;42.012;24.880;2023-02-21T00:15:07;99015.41;;;11.31;39.42
5905;BME280;2978;42.012;24.880;2023-02-21T00:17:51;99026.69;;;11.30;39.13
5905;BME280;2978;42.012;24.880;2023-02-21T00:20:34;99013.19;;;11.28;39.10
5905;BME280;2978;42.012;24.880;2023-02-21T00:23:19;99011.00;;;11.15;39.48
5905;BME280;2978;42.012;24.880;2023-02-21T00:26:02;99022.28;;;11.14;40.05
5905;BME280;2978;42.012;24.880;2023-02-21T00:28:47;99014.84;;;11.14;39.91
5905;BME280;2978;42.012;24.880;2023-02-21T00:31:30;99007.09;;;10.96;39.94
5905;BME280;2978;42.012;24.880;2023-02-21T00:34:14;99021.38;;;10.93;40.50
5905;BME280;2978;42.012;24.880;2023-02-21T00:36:57;99030.72;;;10.87;40.78
5905;BME280;2978;42.012;24.880;2023-02-21T00:39:42;99021.09;;;10.85;40.71
5905;BME280;2978;42.012;24.880;2023-02-21T00:42:26;99007.03;;;10.76;40.94
5905;BME280;2978;42.012;24.880;2023-02-21T00:45:10;99001.78;;;10.60;41.07
5905;BME280;2978;42.012;24.880;2023-02-21T00:47:54;98983.34;;;10.65;40.71
5905;BME280;2978;42.012;24.880;2023-02-21T00:50:38;99002.94;;;10.84;39.91
5905;BME280;2978;42.012;24.880;2023-02-21T00:53:25;98996.91;;;10.92;39.85
5905;BME280;2978;42.012;24.880;2023-02-21T00:56:09;98987.88;;;11.01;39.73
5905;BME280;2978;42.012;24.880;2023-02-21T00:58:53;98976.31;;;11.19;39.16
5905;BME280;2978;42.012;24.880;2023-02-21T01:01:37;98970.28;;;11.43;38.14
5905;BME280;2978;42.012;24.880;2023-02-21T01:04:21;98961.75;;;11.59;37.96
5905;BME280;2978;42.012;24.880;2023-02-21T01:07:05;98969.47;;;11.57;37.98
5905;BME280;2978;42.012;24.880;2023-02-21T01:09:50;98966.72;;;11.47;38.29
5905;BME280;2978;42.012;24.880;2023-02-21T01:12:34;98963.41;;;11.55;38.17
5905;BME280;2978;42.012;24.880;2023-02-21T01:15:18;98964.22;;;11.56;37.94
5905;BME280;2978;42.012;24.880;2023-02-21T01:18:02;98959.81;;;11.65;37.84
5905;BME280;2978;42.012;24.880;2023-02-21T01:20:46;98946.31;;;11.58;37.77
5905;BME280;2978;42.012;24.880;2023-02-21T01:23:30;98952.94;;;11.47;38.44
5905;BME280;2978;42.012;24.880;2023-02-21T01:26:14;98932.28;;;11.40;38.07
5905;BME280;2978;42.012;24.880;2023-02-21T01:28:58;98933.94;;;11.41;38.19
5905;BME280;2978;42.012;24.880;2023-02-21T01:31:42;98929.56;;;11.34;38.34
5905;BME280;2978;42.012;24.880;2023-02-21T01:34:26;98929.53;;;11.40;38.15
5905;BME280;2978;42.012;24.880;2023-02-21T01:37:10;98939.16;;;11.42;38.01
5905;BME280;2978;42.012;24.880;2023-02-21T01:39:54;98926.78;;;11.50;37.87
5905;BME280;2978;42.012;24.880;2023-02-21T01:42:38;98912.19;;;11.49;37.82
5905;BME280;2978;42.012;24.880;2023-02-21T01:48:09;98911.09;;;11.55;37.44
5905;BME280;2978;42.012;24.880;2023-02-21T01:50:55;98897.03;;;11.62;36.78
5905;BME280;2978;42.012;24.880;2023-02-21T01:53:42;98906.94;;;11.73;37.27
5905;BME280;2978;42.012;24.880;2023-02-21T01:56:27;98896.47;;;11.65;37.20
5905;BME280;2978;42.012;24.880;2023-02-21T01:59:12;98893.19;;;11.53;37.36
5905;BME280;2978;42.012;24.880;2023-02-21T02:02:03;98900.38;;;11.44;37.50
5905;BME280;2978;42.012;24.880;2023-02-21T02:04:50;98903.41;;;11.47;37.63
5905;BME280;2978;42.012;24.880;2023-02-21T02:07:36;98900.34;;;11.54;37.15
5905;BME280;2978;42.012;24.880;2023-02-21T02:10:20;98900.91;;;11.56;37.18
5905;BME280;2978;42.012;24.880;2023-02-21T02:16:09;98889.88;;;11.56;37.71
5905;BME280;2978;42.012;24.880;2023-02-21T02:18:46;98900.91;;;11.56;37.51
5905;BME280;2978;42.012;24.880;2023-02-21T02:32:30;98861.56;;;11.25;38.39
5905;BME280;2978;42.012;24.880;2023-02-21T02:43:32;98875.59;;;11.44;37.78
5905;BME280;2978;42.012;24.880;2023-02-21T02:46:37;98868.13;;;11.49;37.99
5905;BME280;2978;42.012;24.880;2023-02-21T02:49:23;98869.53;;;11.47;37.89
5905;BME280;2978;42.012;24.880;2023-02-21T02:51:50;98850.28;;;11.42;37.37
5905;BME280;2978;42.012;24.880;2023-02-21T02:54:16;98841.19;;;11.36;37.62
5905;BME280;2978;42.012;24.880;2023-02-21T02:56:42;98849.44;;;11.36;37.63
5905;BME280;2978;42.012;24.880;2023-02-21T02:59:10;98839.81;;;11.44;37.78
5905;BME280;2978;42.012;24.880;2023-02-21T03:06:55;98827.72;;;11.14;38.39
5905;BME280;2978;42.012;24.880;2023-02-21T03:14:50;98844.81;;;10.96;38.76
5905;BME280;2978;42.012;24.880;2023-02-21T03:17:19;98843.16;;;10.95;38.76
5905;BME280;2978;42.012;24.880;2023-02-21T03:19:49;98855.25;;;10.94;38.67
5905;BME280;2978;42.012;24.880;2023-02-21T03:22:24;98842.59;;;10.98;38.66
5905;BME280;2978;42.012;24.880;2023-02-21T03:24:51;98838.22;;;10.92;38.81
5905;BME280;2978;42.012;24.880;2023-02-21T03:27:19;98842.59;;;10.93;38.57
5905;BME280;2978;42.012;24.880;2023-02-21T03:29:47;98853.31;;;10.90;38.75
5905;BME280;2978;42.012;24.880;2023-02-21T03:32:21;98849.78;;;10.84;39.02
5905;BME280;2978;42.012;24.880;2023-02-21T03:34:48;98836.81;;;10.80;39.23
5905;BME280;2978;42.012;24.880;2023-02-21T03:39:55;98861.28;;;10.86;38.83
5905;BME280;2978;42.012;24.880;2023-02-21T03:42:20;98863.25;;;10.91;39.29
5905;BME280;2978;42.012;24.880;2023-02-21T03:44:45;98845.91;;;10.90;38.75
5905;BME280;2978;42.012;24.880;2023-02-21T03:47:11;98862.41;;;10.85;39.22
5905;BME280;2978;42.012;24.880;2023-02-21T03:49:36;98863.50;;;10.79;39.49
5905;BME280;2978;42.012;24.880;2023-02-21T03:52:02;98860.19;;;10.67;39.90
5905;BME280;2978;42.012;24.880;2023-02-21T03:54:27;98858.53;;;10.56;39.88
5905;BME280;2978;42.012;24.880;2023-02-21T03:56:53;98860.44;;;10.51;40.13
5905;BME280;2978;42.012;24.880;2023-02-21T03:59:18;98863.47;;;10.49;40.30
5905;BME280;2978;42.012;24.880;2023-02-21T04:01:43;98858.53;;;10.51;40.34
5905;BME280;2978;42.012;24.880;2023-02-21T04:04:09;98859.09;;;10.63;39.81
5905;BME280;2978;42.012;24.880;2023-02-21T04:06:34;98862.13;;;10.77;40.03
5905;BME280;2978;42.012;24.880;2023-02-21T04:09:00;98851.41;;;10.80;39.52
5905;BME280;2978;42.012;24.880;2023-02-21T04:11:25;98863.53;;;10.84;39.24
5905;BME280;2978;42.012;24.880;2023-02-21T04:13:51;98862.13;;;10.87;39.39
5905;BME280;2978;42.012;24.880;2023-02-21T04:16:17;98865.16;;;10.90;39.80
5905;BME280;2978;42.012;24.880;2023-02-21T04:18:42;98854.72;;;10.82;39.74
5905;BME280;2978;42.012;24.880;2023-02-21T04:21:08;98843.44;;;10.74;40.13
5905;BME280;2978;42.012;24.880;2023-02-21T04:23:33;98843.72;;;10.77;39.76
5905;BME280;2978;42.012;24.880;2023-02-21T04:25:58;98849.50;;;10.86;39.96
5905;BME280;2978;42.012;24.880;2023-02-21T04:28:24;98856.34;;;10.88;39.55
5905;BME280;2978;42.012;24.880;2023-02-21T04:30:49;98856.34;;;10.88;39.73
5905;BME280;2978;42.012;24.880;2023-02-21T04:33:15;98858.00;;;10.89;39.98
5905;BME280;2978;42.012;24.880;2023-02-21T04:35:40;98857.19;;;10.94;39.44
5905;BME280;2978;42.012;24.880;2023-02-21T04:38:10;98873.97;;;11.02;39.16
5905;BME280;2978;42.012;24.880;2023-02-21T04:40:36;98865.97;;;11.11;39.58
5905;BME280;2978;42.012;24.880;2023-02-21T04:43:01;98867.91;;;11.25;38.95
5905;BME280;2978;42.012;24.880;2023-02-21T04:45:27;98873.97;;;11.17;39.06
5905;BME280;2978;42.012;24.880;2023-02-21T04:47:54;98882.19;;;11.12;39.02
5905;BME280;2978;42.012;24.880;2023-02-21T04:50:19;98872.59;;;11.15;39.18
5905;BME280;2978;42.012;24.880;2023-02-21T04:52:46;98876.44;;;11.14;39.21
5905;BME280;2978;42.012;24.880;2023-02-21T04:55:11;98862.94;;;11.07;39.38
5905;BME280;2978;42.012;24.880;2023-02-21T04:57:38;98868.44;;;11.02;39.50
5905;BME280;2978;42.012;24.880;2023-02-21T05:00:03;98876.72;;;10.97;39.74
5905;BME280;2978;42.012;24.880;2023-02-21T05:02:31;98873.97;;;11.02;39.54
5905;BME280;2978;42.012;24.880;2023-02-21T05:04:56;98881.94;;;11.09;39.81
5905;BME280;2978;42.012;24.880;2023-02-21T05:07:22;98876.19;;;11.10;39.94
5905;BME280;2978;42.012;24.880;2023-02-21T05:09:47;98882.75;;;11.04;39.80
5905;BME280;2978;42.012;24.880;2023-02-21T05:12:14;98868.19;;;10.99;39.61
5905;BME280;2978;42.012;24.880;2023-02-21T05:14:39;98864.63;;;11.03;40.00
5905;BME280;2978;42.012;24.880;2023-02-21T05:17:06;98865.69;;;11.02;40.01
5905;BME280;2978;42.012;24.880;2023-02-21T05:19:31;98875.34;;;11.05;40.35
5905;BME280;2978;42.012;24.880;2023-02-21T05:21:59;98865.16;;;11.20;40.46
5905;BME280;2978;42.012;24.880;2023-02-21T05:24:26;98883.31;;;11.11;40.16
5905;BME280;2978;42.012;24.880;2023-02-21T05:26:53;98881.41;;;11.17;40.46
5905;BME280;2978;42.012;24.880;2023-02-21T05:29:18;98872.28;;;11.21;39.88
5905;BME280;2978;42.012;24.880;2023-02-21T05:31:45;98884.38;;;11.41;39.83
5905;BME280;2978;42.012;24.880;2023-02-21T05:34:11;98881.91;;;11.44;39.93
5905;BME280;2978;42.012;24.880;2023-02-21T05:36:36;98878.63;;;11.47;39.74
5905;BME280;2978;42.012;24.880;2023-02-21T05:39:02;98884.38;;;11.46;39.10
5905;BME280;2978;42.012;24.880;2023-02-21T05:41:28;98875.31;;;11.30;39.83
5905;BME280;2978;42.012;24.880;2023-02-21T05:43:53;98881.94;;;11.34;39.92
5905;BME280;2978;42.012;24.880;2023-02-21T05:46:31;98886.59;;;11.44;39.91
5905;BME280;2978;42.012;24.880;2023-02-21T05:48:58;98887.69;;;11.43;39.94
5905;BME280;2978;42.012;24.880;2023-02-21T05:51:24;98902.56;;;11.47;39.72
5905;BME280;2978;42.012;24.880;2023-02-21T05:53:50;98899.78;;;11.52;40.14
5905;BME280;2978;42.012;24.880;2023-02-21T05:56:17;98913.28;;;11.53;40.00
5905;BME280;2978;42.012;24.880;2023-02-21T05:58:43;98906.41;;;11.56;39.92
5905;BME280;2978;42.012;24.880;2023-02-21T06:01:09;98921.00;;;11.46;40.42
5905;BME280;2978;42.012;24.880;2023-02-21T06:03:34;98904.22;;;11.38;40.34
5905;BME280;2978;42.012;24.880;2023-02-21T06:06:00;98914.66;;;11.41;40.55
5905;BME280;2978;42.012;24.880;2023-02-21T06:08:25;98908.91;;;11.47;40.38
5905;BME280;2978;42.012;24.880;2023-02-21T06:10:51;98908.03;;;11.57;40.37
5905;BME280;2978;42.012;24.880;2023-02-21T06:13:17;98900.88;;;11.61;40.45
5905;BME280;2978;42.012;24.880;2023-02-21T06:15:43;98906.94;;;11.73;40.26
5905;BME280;2978;42.012;24.880;2023-02-21T06:18:11;98909.69;;;11.83;40.25
5905;BME280;2978;42.012;24.880;2023-02-21T06:20:37;98910.75;;;11.92;39.97
5905;BME280;2978;42.012;24.880;2023-02-21T06:23:02;98920.09;;;12.06;39.23
5905;BME280;2978;42.012;24.880;2023-02-21T06:25:28;98909.59;;;12.08;39.68
5905;BME280;2978;42.012;24.880;2023-02-21T06:27:53;98913.97;;;12.14;39.77
5905;BME280;2978;42.012;24.880;2023-02-21T06:30:19;98911.72;;;12.26;39.64
5905;BME280;2978;42.012;24.880;2023-02-21T06:32:44;98907.00;;;12.36;39.15
5905;BME280;2978;42.012;24.880;2023-02-21T06:35:11;98906.34;;;12.55;38.70
5905;BME280;2978;42.012;24.880;2023-02-21T06:37:36;98905.47;;;12.64;38.82
5905;BME280;2978;42.012;24.880;2023-02-21T06:40:02;98900.66;;;12.85;38.84
5905;BME280;2978;42.012;24.880;2023-02-21T06:44:54;98904.78;;;13.26;37.50
5905;BME280;2978;42.012;24.880;2023-02-21T06:47:19;98901.34;;;13.39;37.53
5905;BME280;2978;42.012;24.880;2023-02-21T06:49:45;98904.88;;;13.44;37.30
5905;BME280;2978;42.012;24.880;2023-02-21T06:52:10;98903.69;;;13.55;36.83
5905;BME280;2978;42.012;24.880;2023-02-21T06:54:36;98894.03;;;13.82;37.01
5905;BME280;2978;42.012;24.880;2023-02-21T06:57:01;98912.91;;;13.98;36.35
5905;BME280;2978;42.012;24.880;2023-02-21T07:00:04;98918.28;;;14.13;36.33
5905;BME280;2978;42.012;24.880;2023-02-21T07:02:29;98909.56;;;14.25;36.10
5905;BME280;2978;42.012;24.880;2023-02-21T07:04:55;98902.69;;;14.22;35.53
5905;BME280;2978;42.012;24.880;2023-02-21T07:07:20;98915.69;;;14.22;35.65
5905;BME280;2978;42.012;24.880;2023-02-21T07:09:46;98915.66;;;13.75;36.00
5905;BME280;2978;42.012;24.880;2023-02-21T07:12:11;98915.66;;;13.98;36.18
5905;BME280;2978;42.012;24.880;2023-02-21T07:14:36;98902.44;;;13.72;36.17
5905;BME280;2978;42.012;24.880;2023-02-21T07:17:02;98912.31;;;13.78;36.53
5905;BME280;2978;42.012;24.880;2023-02-21T07:19:27;98905.63;;;13.84;36.17
5905;BME280;2978;42.012;24.880;2023-02-21T07:21:53;98907.41;;;13.70;36.17
5905;BME280;2978;42.012;24.880;2023-02-21T07:24:20;98893.72;;;13.60;36.80
5905;BME280;2978;42.012;24.880;2023-02-21T07:26:45;98896.59;;;13.44;36.75
5905;BME280;2978;42.012;24.880;2023-02-21T07:29:11;98891.56;;;13.51;36.96
5905;BME280;2978;42.012;24.880;2023-02-21T07:31:36;98890.66;;;13.61;36.87
5905;BME280;2978;42.012;24.880;2023-02-21T07:34:01;98883.75;;;13.87;36.37
5905;BME280;2978;42.012;24.880;2023-02-21T07:36:27;98893.09;;;14.15;36.11
5905;BME280;2978;42.012;24.880;2023-02-21T07:38:52;98875.41;;;14.39;35.44
5905;BME280;2978;42.012;24.880;2023-02-21T07:41:18;98877.88;;;14.78;35.17
5905;BME280;2978;42.012;24.880;2023-02-21T07:43:43;98869.91;;;15.09;34.68
5905;BME280;2978;42.012;24.880;2023-02-21T07:46:10;98875.84;;;15.34;34.37
5905;BME280;2978;42.012;24.880;2023-02-21T07:48:36;98879.78;;;15.65;34.13
5905;BME280;2978;42.012;24.880;2023-02-21T07:51:01;98879.59;;;16.03;33.81
5905;BME280;2978;42.012;24.880;2023-02-21T07:53:26;98846.94;;;16.13;33.50
5905;BME280;2978;42.012;24.880;2023-02-21T07:55:52;98867.34;;;16.44;33.27
5905;BME280;2978;42.012;24.880;2023-02-21T07:58:17;98860.06;;;16.62;32.70
5905;BME280;2978;42.012;24.880;2023-02-21T08:00:43;98857.69;;;16.69;32.23
5905;BME280;2978;42.012;24.880;2023-02-21T08:03:11;98856.19;;;16.85;32.63
5905;BME280;2978;42.012;24.880;2023-02-21T08:05:37;98848.66;;;16.99;32.15
5905;BME280;2978;42.012;24.880;2023-02-21T08:08:09;98848.06;;;17.11;32.16
5905;BME280;2978;42.012;24.880;2023-02-21T08:10:34;98854.66;;;17.15;31.49
5905;BME280;2978;42.012;24.880;2023-02-21T08:13:00;98852.75;;;17.24;31.85
5905;BME280;2978;42.012;24.880;2023-02-21T08:15:26;98856.56;;;17.50;31.76
5905;BME280;2978;42.012;24.880;2023-02-21T08:17:51;98849.03;;;17.81;31.08
5905;BME280;2978;42.012;24.880;2023-02-21T08:20:18;98850.47;;;18.09;30.96
5905;BME280;2978;42.012;24.880;2023-02-21T08:22:43;98838.47;;;18.39;30.39
5905;BME280;2978;42.012;24.880;2023-02-21T08:25:11;98838.03;;;18.63;30.22
5905;BME280;2978;42.012;24.880;2023-02-21T08:27:40;98837.88;;;18.85;29.72
5905;BME280;2978;42.012;24.880;2023-02-21T08:30:08;98828.03;;;19.13;29.07
5905;BME280;2978;42.012;24.880;2023-02-21T08:32:34;98828.38;;;19.37;28.94
5905;BME280;2978;42.012;24.880;2023-02-21T08:35:00;98805.38;;;19.57;28.68
5905;BME280;2978;42.012;24.880;2023-02-21T08:37:28;98806.63;;;19.68;28.13
5905;BME280;2978;42.012;24.880;2023-02-21T08:39:57;98801.19;;;19.80;27.48
5905;BME280;2978;42.012;24.880;2023-02-21T08:42:23;98793.28;;;19.91;27.32
5905;BME280;2978;42.012;24.880;2023-02-21T08:44:51;98791.91;;;19.97;27.39
5905;BME280;2978;42.012;24.880;2023-02-21T08:47:17;98790.78;;;19.89;27.58
5905;BME280;2978;42.012;24.880;2023-02-21T08:49:44;98787.00;;;19.94;27.60
5905;BME280;2978;42.012;24.880;2023-02-21T08:52:12;98780.59;;;19.93;27.12
5905;BME280;2978;42.012;24.880;2023-02-21T08:54:37;98765.31;;;19.99;27.15
5905;BME280;2978;42.012;24.880;2023-02-21T08:57:02;98753.66;;;19.97;27.05
5905;BME280;2978;42.012;24.880;2023-02-21T08:59:28;98755.78;;;20.00;27.25
5905;BME280;2978;42.012;24.880;2023-02-21T09:01:57;98759.84;;;20.11;25.93
5905;BME280;2978;42.012;24.880;2023-02-21T09:04:23;98763.47;;;20.03;25.83
5905;BME280;2978;42.012;24.880;2023-02-21T09:06:50;98758.84;;;20.07;24.80
5905;BME280;2978;42.012;24.880;2023-02-21T09:09:15;98756.56;;;20.09;24.85
5905;BME280;2978;42.012;24.880;2023-02-21T09:11:41;98751.78;;;20.10;23.49
5905;BME280;2978;42.012;24.880;2023-02-21T09:14:11;98763.44;;;20.21;24.22
5905;BME280;2978;42.012;24.880;2023-02-21T09:16:37;98750.47;;;20.07;25.27
5905;BME280;2978;42.012;24.880;2023-02-21T09:19:03;98760.69;;;20.03;25.27
5905;BME280;2978;42.012;24.880;2023-02-21T09:21:31;98763.84;;;19.93;24.19
5905;BME280;2978;42.012;24.880;2023-02-21T09:23:57;98760.47;;;19.79;25.19
5905;BME280;2978;42.012;24.880;2023-02-21T09:26:45;98766.50;;;19.90;24.82
5905;BME280;2978;42.012;24.880;2023-02-21T09:29:11;98764.59;;;20.11;23.73
5905;BME280;2978;42.012;24.880;2023-02-21T09:31:36;98765.13;;;20.34;23.83
5905;BME280;2978;42.012;24.880;2023-02-21T09:34:02;98770.13;;;20.49;23.22
5905;BME280;2978;42.012;24.880;2023-02-21T09:36:27;98764.88;;;20.68;23.12
5905;BME280;2978;42.012;24.880;2023-02-21T09:38:52;98762.63;;;20.82;24.19
5905;BME280;2978;42.012;24.880;2023-02-21T09:41:18;98759.63;;;20.87;24.39
5905;BME280;2978;42.012;24.880;2023-02-21T09:43:46;98762.97;;;21.01;23.35
5905;BME280;2978;42.012;24.880;2023-02-21T09:48:51;98754.78;;;21.16;22.71
5905;BME280;2978;42.012;24.880;2023-02-21T09:51:17;98745.69;;;21.19;22.18
5905;BME280;2978;42.012;24.880;2023-02-21T09:53:46;98745.81;;;21.23;22.54
5905;BME280;2978;42.012;24.880;2023-02-21T09:56:20;98746.50;;;21.20;22.51
5905;BME280;2978;42.012;24.880;2023-02-21T09:58:46;98742.56;;;21.21;23.65
5905;BME280;2978;42.012;24.880;2023-02-21T10:04:13;98733.94;;;21.26;23.81
5905;BME280;2978;42.012;24.880;2023-02-21T10:07:09;98740.72;;;21.25;22.88
5905;BME280;2978;42.012;24.880;2023-02-21T10:12:34;98723.44;;;21.23;23.43
5905;BME280;2978;42.012;24.880;2023-02-21T10:15:19;98724.91;;;21.08;23.81
5905;BME280;2978;42.012;24.880;2023-02-21T10:21:15;98714.91;;;20.87;24.15
5905;BME280;2978;42.012;24.880;2023-02-21T10:23:49;98696.88;;;20.96;24.22
5905;BME280;2978;42.012;24.880;2023-02-21T10:26:36;98687.75;;;21.08;23.13
5905;BME280;2978;42.012;24.880;2023-02-21T10:29:16;98698.03;;;21.16;23.19
5905;BME280;2978;42.012;24.880;2023-02-21T10:31:44;98702.56;;;21.20;23.43
5905;BME280;2978;42.012;24.880;2023-02-21T10:34:23;98680.06;;;21.17;23.17
5905;BME280;2978;42.012;24.880;2023-02-21T10:36:51;98672.16;;;21.19;23.70
5905;BME280;2978;42.012;24.880;2023-02-21T10:39:21;98665.44;;;21.32;24.01
5905;BME280;2978;42.012;24.880;2023-02-21T10:41:50;98659.84;;;21.44;23.27
5905;BME280;2978;42.012;24.880;2023-02-21T10:44:21;98657.41;;;21.55;23.33
5905;BME280;2978;42.012;24.880;2023-02-21T10:47:03;98659.28;;;21.63;23.48
5905;BME280;2978;42.012;24.880;2023-02-21T10:50:01;98642.63;;;21.78;23.21
5905;BME280;2978;42.012;24.880;2023-02-21T10:59:24;98640.88;;;21.86;22.54
5905;BME280;2978;42.012;24.880;2023-02-21T11:01:51;98628.84;;;21.85;22.69
5905;BME280;2978;42.012;24.880;2023-02-21T11:06:58;98613.34;;;21.76;22.91
5905;BME280;2978;42.012;24.880;2023-02-21T11:14:25;98597.94;;;21.70;23.06
5905;BME280;2978;42.012;24.880;2023-02-21T11:17:14;98606.56;;;21.65;22.79
5905;BME280;2978;42.012;24.880;2023-02-21T11:27:34;98605.75;;;21.64;23.29
5905;BME280;2978;42.012;24.880;2023-02-21T11:30:09;98595.50;;;21.68;22.98
5905;BME280;2978;42.012;24.880;2023-02-21T11:32:39;98589.44;;;21.78;22.70
5905;BME280;2978;42.012;24.880;2023-02-21T11:35:23;98588.16;;;21.88;23.12
5905;BME280;2978;42.012;24.880;2023-02-21T11:37:58;98584.31;;;21.80;23.28
5905;BME280;2978;42.012;24.880;2023-02-21T11:40:42;98584.16;;;21.77;23.07
5905;BME280;2978;42.012;24.880;2023-02-21T11:43:19;98575.19;;;21.71;23.14
5905;BME280;2978;42.012;24.880;2023-02-21T11:48:50;98570.31;;;21.68;23.36
5905;BME280;2978;42.012;24.880;2023-02-21T11:51:36;98553.25;;;21.73;23.39
5905;BME280;2978;42.012;24.880;2023-02-21T11:54:04;98555.03;;;21.78;23.48
5905;BME280;2978;42.012;24.880;2023-02-21T11:56:53;98546.03;;;21.84;23.39
5905;BME280;2978;42.012;24.880;2023-02-21T12:02:36;98532.06;;;21.84;22.86
5905;BME280;2978;42.012;24.880;2023-02-21T12:05:28;98527.59;;;21.83;23.26
5905;BME280;2978;42.012;24.880;2023-02-21T12:26:55;98480.50;;;22.28;22.39
5905;BME280;2978;42.012;24.880;2023-02-21T12:35:36;98478.56;;;22.45;22.01
5905;BME280;2978;42.012;24.880;2023-02-21T12:48:43;98468.94;;;22.58;22.58
5905;BME280;2978;42.012;24.880;2023-02-21T12:51:15;98472.94;;;22.45;22.49
5905;BME280;2978;42.012;24.880;2023-02-21T12:56:20;98476.03;;;22.40;22.90
5905;BME280;2978;42.012;24.880;2023-02-21T13:01:43;98456.03;;;22.41;22.45
5905;BME280;2978;42.012;24.880;2023-02-21T13:04:17;98460.56;;;22.46;22.75
5905;BME280;2978;42.012;24.880;2023-02-21T13:09:35;98449.25;;;22.42;22.75
5905;BME280;2978;42.012;24.880;2023-02-21T13:14:51;98443.75;;;22.46;22.54
5905;BME280;2978;42.012;24.880;2023-02-21T13:17:19;98439.22;;;22.41;23.28
5905;BME280;2978;42.012;24.880;2023-02-21T13:28:29;98439.59;;;22.40;21.84
5905;BME280;2978;42.012;24.880;2023-02-21T13:31:04;98453.41;;;22.32;21.88
5905;BME280;2978;42.012;24.880;2023-02-21T13:36:00;98437.97;;;22.39;21.68
5905;BME280;2978;42.012;24.880;2023-02-21T13:38:30;98440.94;;;22.46;21.69
5905;BME280;2978;42.012;24.880;2023-02-21T13:41:06;98426.50;;;22.44;21.74
5905;BME280;2978;42.012;24.880;2023-02-21T13:43:36;98429.63;;;22.42;21.44
5905;BME280;2978;42.012;24.880;2023-02-21T14:03:03;98417.25;;;22.27;21.86
5905;BME280;2978;42.012;24.880;2023-02-21T14:10:45;98408.31;;;22.22;22.42
5905;BME280;2978;42.012;24.880;2023-02-21T14:13:27;98407.22;;;22.26;22.21
5905;BME280;2978;42.012;24.880;2023-02-21T14:18:44;98397.84;;;22.34;22.26
5905;BME280;2978;42.012;24.880;2023-02-21T14:23:50;98399.72;;;22.30;22.41
5905;BME280;2978;42.012;24.880;2023-02-21T14:29:10;98409.13;;;22.22;22.29
5905;BME280;2978;42.012;24.880;2023-02-21T14:31:53;98399.53;;;22.23;22.31
5905;BME280;2978;42.012;24.880;2023-02-21T14:40:00;98404.13;;;22.16;22.62
5905;BME280;2978;42.012;24.880;2023-02-21T14:48:16;98407.31;;;22.14;22.43
5905;BME280;2978;42.012;24.880;2023-02-21T14:56:19;98400.25;;;22.05;22.83
5905;BME280;2978;42.012;24.880;2023-02-21T14:59:09;98415.06;;;22.05;22.90
5905;BME280;2978;42.012;24.880;2023-02-21T15:05:21;98406.03;;;21.96;22.53
5905;BME280;2978;42.012;24.880;2023-02-21T15:07:51;98399.19;;;21.82;22.71
5905;BME280;2978;42.012;24.880;2023-02-21T15:10:23;98405.19;;;21.68;23.32
5905;BME280;2978;42.012;24.880;2023-02-21T15:12:55;98404.16;;;21.61;23.22
5905;BME280;2978;42.012;24.880;2023-02-21T15:15:29;98403.94;;;21.54;23.14
5905;BME280;2978;42.012;24.880;2023-02-21T15:21:01;98410.88;;;21.44;23.67
5905;BME280;2978;42.012;24.880;2023-02-21T15:23:27;98413.47;;;21.37;23.68
5905;BME280;2978;42.012;24.880;2023-02-21T15:25:56;98405.00;;;21.21;23.64
5905;BME280;2978;42.012;24.880;2023-02-21T15:28:30;98411.06;;;21.11;23.82
5905;BME280;2978;42.012;24.880;2023-02-21T15:33:22;98405.34;;;20.96;24.30
5905;BME280;2978;42.012;24.880;2023-02-21T15:41:39;98428.19;;;20.62;25.04
5905;BME280;2978;42.012;24.880;2023-02-21T15:44:26;98426.31;;;20.42;25.42
5905;BME280;2978;42.012;24.880;2023-02-21T15:49:25;98441.88;;;20.19;25.90
5905;BME280;2978;42.012;24.880;2023-02-21T15:51:52;98422.56;;;19.93;26.08
5905;BME280;2978;42.012;24.880;2023-02-21T15:54:32;98438.91;;;19.82;26.44
5905;BME280;2978;42.012;24.880;2023-02-21T15:57:02;98431.69;;;19.69;26.56
5905;BME280;2978;42.012;24.880;2023-02-21T15:59:29;98433.03;;;19.63;26.75
5905;BME280;2978;42.012;24.880;2023-02-21T16:04:45;98433.53;;;19.45;27.18
5905;BME280;2978;42.012;24.880;2023-02-21T16:07:27;98441.16;;;19.36;27.29
5905;BME280;2978;42.012;24.880;2023-02-21T16:09:59;98436.31;;;19.24;27.80
5905;BME280;2978;42.012;24.880;2023-02-21T16:12:27;98432.97;;;19.10;27.95
5905;BME280;2978;42.012;24.880;2023-02-21T16:17:39;98443.94;;;18.86;28.46
5905;BME280;2978;42.012;24.880;2023-02-21T16:22:41;98442.13;;;18.52;28.77
5905;BME280;2978;42.012;24.880;2023-02-21T16:27:56;98448.72;;;18.31;29.28
5905;BME280;2978;42.012;24.880;2023-02-21T16:30:26;98455.94;;;18.32;29.46
5905;BME280;2978;42.012;24.880;2023-02-21T16:32:54;98452.69;;;18.30;29.43
5905;BME280;2978;42.012;24.880;2023-02-21T16:35:24;98457.59;;;18.24;29.23
5905;BME280;2978;42.012;24.880;2023-02-21T16:37:53;98455.34;;;18.18;29.63
5905;BME280;2978;42.012;24.880;2023-02-21T16:40:25;98468.13;;;18.02;29.91
5905;BME280;2978;42.012;24.880;2023-02-21T16:42:53;98470.13;;;17.84;30.17
5905;BME280;2978;42.012;24.880;2023-02-21T16:45:19;98466.69;;;17.78;30.36
5905;BME280;2978;42.012;24.880;2023-02-21T16:47:47;98472.28;;;17.70;30.72
5905;BME280;2978;42.012;24.880;2023-02-21T16:50:40;98464.44;;;17.63;30.40
5905;BME280;2978;42.012;24.880;2023-02-21T16:53:06;98469.00;;;17.59;30.63
5905;BME280;2978;42.012;24.880;2023-02-21T16:55:36;98466.06;;;17.47;30.71
5905;BME280;2978;42.012;24.880;2023-02-21T16:58:05;98463.09;;;17.44;30.72
5905;BME280;2978;42.012;24.880;2023-02-21T17:00:31;98463.25;;;17.39;30.76
5905;BME280;2978;42.012;24.880;2023-02-21T17:02:58;98471.09;;;17.37;30.69
5905;BME280;2978;42.012;24.880;2023-02-21T17:05:23;98462.13;;;17.40;30.77
5905;BME280;2978;42.012;24.880;2023-02-21T17:07:50;98472.59;;;17.43;30.59